sensor_id;sensor_type;location;lat;lon;timestamp;P1;durP1;ratioP1;P2;durP2;ratioP2
75408;SDS011;63979;55.644;37.734;2024-03-02T00:01:28;52.30;;;19.65;;
75408;SDS011;63979;55.644;37.734;2024-03-02T00:06:28;38.80;;;18.85;;
75408;SDS011;63979;55.644;37.734;2024-03-02T00:11:29;45.15;;;19.88;;
75408;SDS011;63979;55.644;37.734;2024-03-02T00:16:30;39.00;;;19.42;;
75408;SDS011;63979;55.644;37.734;2024-03-02T00:21:37;35.75;;;19.02;;
75408;SDS011;63979;55.644;37.734;2024-03-02T00:26:38;41.90;;;20.15;;
75408;SDS011;63979;55.644;37.734;2024-03-02T00:31:39;36.33;;;18.35;;
75408;SDS011;63979;55.644;37.734;2024-03-02T00:36:46;35.90;;;17.52;;
75408;SDS011;63979;55.644;37.734;2024-03-02T00:41:47;42.35;;;19.33;;
75408;SDS011;63979;55.644;37.734;2024-03-02T00:46:48;36.92;;;18.05;;
75408;SDS011;63979;55.644;37.734;2024-03-02T00:51:51;42.53;;;19.15;;
75408;SDS011;63979;55.644;37.734;2024-03-02T00:56:53;43.50;;;18.70;;
75408;SDS011;63979;55.644;37.734;2024-03-02T01:02:01;43.00;;;17.48;;
75408;SDS011;63979;55.644;37.734;2024-03-02T01:07:02;43.05;;;18.48;;
75408;SDS011;63979;55.644;37.734;2024-03-02T01:12:03;41.13;;;19.08;;
75408;SDS011;63979;55.644;37.734;2024-03-02T01:17:04;37.40;;;18.33;;
75408;SDS011;63979;55.644;37.734;2024-03-02T01:22:05;35.15;;;18.35;;
75408;SDS011;63979;55.644;37.734;2024-03-02T01:27:05;42.95;;;18.58;;
75408;SDS011;63979;55.644;37.734;2024-03-02T01:32:06;46.05;;;20.73;;
75408;SDS011;63979;55.644;37.734;2024-03-02T01:37:07;42.40;;;17.77;;
75408;SDS011;63979;55.644;37.734;2024-03-02T01:42:08;36.00;;;19.08;;
75408;SDS011;63979;55.644;37.734;2024-03-02T01:47:11;41.40;;;19.02;;
75408;SDS011;63979;55.644;37.734;2024-03-02T01:52:12;36.42;;;18.17;;
75408;SDS011;63979;55.644;37.734;2024-03-02T01:57:18;40.65;;;18.30;;
75408;SDS011;63979;55.644;37.734;2024-03-02T02:02:19;43.53;;;19.60;;
75408;SDS011;63979;55.644;37.734;2024-03-02T02:07:20;34.97;;;17.98;;
75408;SDS011;63979;55.644;37.734;2024-03-02T02:12:21;38.45;;;17.40;;
75408;SDS011;63979;55.644;37.734;2024-03-02T02:17:22;37.42;;;17.35;;
75408;SDS011;63979;55.644;37.734;2024-03-02T02:22:23;42.13;;;18.45;;
75408;SDS011;63979;55.644;37.734;2024-03-02T02:27:24;40.33;;;18.60;;
75408;SDS011;63979;55.644;37.734;2024-03-02T02:32:25;41.67;;;19.05;;
75408;SDS011;63979;55.644;37.734;2024-03-02T02:37:27;33.55;;;17.25;;
75408;SDS011;63979;55.644;37.734;2024-03-02T02:42:33;38.10;;;18.10;;
75408;SDS011;63979;55.644;37.734;2024-03-02T02:47:34;41.45;;;19.85;;
75408;SDS011;63979;55.644;37.734;2024-03-02T02:52:38;39.33;;;18.42;;
75408;SDS011;63979;55.644;37.734;2024-03-02T02:57:41;42.10;;;19.90;;
75408;SDS011;63979;55.644;37.734;2024-03-02T03:02:47;34.78;;;18.27;;
75408;SDS011;63979;55.644;37.734;2024-03-02T03:07:49;46.70;;;20.40;;
75408;SDS011;63979;55.644;37.734;2024-03-02T03:12:50;44.13;;;20.60;;
75408;SDS011;63979;55.644;37.734;2024-03-02T03:17:51;42.00;;;19.65;;
75408;SDS011;63979;55.644;37.734;2024-03-02T03:22:52;38.58;;;20.52;;
75408;SDS011;63979;55.644;37.734;2024-03-02T03:27:52;49.63;;;21.15;;
75408;SDS011;63979;55.644;37.734;2024-03-02T03:32:53;44.47;;;21.83;;
75408;SDS011;63979;55.644;37.734;2024-03-02T03:37:54;40.90;;;20.98;;
75408;SDS011;63979;55.644;37.734;2024-03-02T03:42:55;46.58;;;19.58;;
75408;SDS011;63979;55.644;37.734;2024-03-02T03:47:57;38.88;;;19.20;;
75408;SDS011;63979;55.644;37.734;2024-03-02T03:52:59;41.30;;;20.27;;
75408;SDS011;63979;55.644;37.734;2024-03-02T03:57:59;37.60;;;20.10;;
75408;SDS011;63979;55.644;37.734;2024-03-02T04:03:01;42.28;;;19.38;;
75408;SDS011;63979;55.644;37.734;2024-03-02T04:08:02;43.58;;;19.65;;
75408;SDS011;63979;55.644;37.734;2024-03-02T04:13:03;43.72;;;18.15;;
75408;SDS011;63979;55.644;37.734;2024-03-02T04:18:04;46.13;;;20.70;;
75408;SDS011;63979;55.644;37.734;2024-03-02T04:23:05;36.33;;;19.33;;
75408;SDS011;63979;55.644;37.734;2024-03-02T04:28:06;42.83;;;19.58;;
75408;SDS011;63979;55.644;37.734;2024-03-02T04:33:07;41.15;;;20.00;;
75408;SDS011;63979;55.644;37.734;2024-03-02T04:38:10;50.42;;;18.60;;
75408;SDS011;63979;55.644;37.734;2024-03-02T04:43:11;35.50;;;17.35;;
75408;SDS011;63979;55.644;37.734;2024-03-02T04:48:15;37.35;;;19.42;;
75408;SDS011;63979;55.644;37.734;2024-03-02T04:53:16;36.47;;;17.27;;
75408;SDS011;63979;55.644;37.734;2024-03-02T04:58:17;45.00;;;18.35;;
75408;SDS011;63979;55.644;37.734;2024-03-02T05:03:17;50.65;;;22.63;;
75408;SDS011;63979;55.644;37.734;2024-03-02T05:08:18;50.28;;;21.88;;
75408;SDS011;63979;55.644;37.734;2024-03-02T05:13:19;37.28;;;18.27;;
75408;SDS011;63979;55.644;37.734;2024-03-02T05:18:21;35.85;;;19.00;;
75408;SDS011;63979;55.644;37.734;2024-03-02T05:23:24;45.17;;;21.58;;
75408;SDS011;63979;55.644;37.734;2024-03-02T05:28:25;42.22;;;21.23;;
75408;SDS011;63979;55.644;37.734;2024-03-02T05:33:26;40.47;;;21.58;;
75408;SDS011;63979;55.644;37.734;2024-03-02T05:38:27;48.78;;;22.20;;
75408;SDS011;63979;55.644;37.734;2024-03-02T05:43:28;44.38;;;22.40;;
75408;SDS011;63979;55.644;37.734;2024-03-02T05:48:29;48.10;;;22.77;;
75408;SDS011;63979;55.644;37.734;2024-03-02T05:53:30;43.00;;;21.00;;
75408;SDS011;63979;55.644;37.734;2024-03-02T05:58:31;51.40;;;23.23;;
75408;SDS011;63979;55.644;37.734;2024-03-02T06:03:51;43.08;;;19.05;;
75408;SDS011;63979;55.644;37.734;2024-03-02T06:08:52;44.92;;;21.65;;
75408;SDS011;63979;55.644;37.734;2024-03-02T06:13:53;42.45;;;21.20;;
75408;SDS011;63979;55.644;37.734;2024-03-02T06:18:54;47.60;;;24.23;;
75408;SDS011;63979;55.644;37.734;2024-03-02T06:23:55;53.72;;;22.58;;
75408;SDS011;63979;55.644;37.734;2024-03-02T06:28:57;51.20;;;23.10;;
75408;SDS011;63979;55.644;37.734;2024-03-02T06:33:57;49.03;;;24.00;;
75408;SDS011;63979;55.644;37.734;2024-03-02T06:38:58;44.97;;;21.45;;
75408;SDS011;63979;55.644;37.734;2024-03-02T06:43:59;44.00;;;23.33;;
75408;SDS011;63979;55.644;37.734;2024-03-02T06:49:00;46.35;;;22.52;;
75408;SDS011;63979;55.644;37.734;2024-03-02T06:54:02;47.92;;;23.25;;
75408;SDS011;63979;55.644;37.734;2024-03-02T06:59:03;50.75;;;26.10;;
75408;SDS011;63979;55.644;37.734;2024-03-02T07:04:04;42.65;;;22.10;;
75408;SDS011;63979;55.644;37.734;2024-03-02T07:09:07;49.17;;;25.08;;
75408;SDS011;63979;55.644;37.734;2024-03-02T07:14:11;54.67;;;25.05;;
75408;SDS011;63979;55.644;37.734;2024-03-02T07:19:15;44.15;;;23.30;;
75408;SDS011;63979;55.644;37.734;2024-03-02T07:24:18;51.17;;;25.67;;
75408;SDS011;63979;55.644;37.734;2024-03-02T07:29:39;49.70;;;24.20;;
75408;SDS011;63979;55.644;37.734;2024-03-02T07:34:40;48.08;;;23.92;;
75408;SDS011;63979;55.644;37.734;2024-03-02T07:39:44;47.45;;;23.00;;
75408;SDS011;63979;55.644;37.734;2024-03-02T07:45:15;57.58;;;24.70;;
75408;SDS011;63979;55.644;37.734;2024-03-02T07:50:22;50.13;;;23.45;;
75408;SDS011;63979;55.644;37.734;2024-03-02T07:55:27;44.63;;;24.52;;
75408;SDS011;63979;55.644;37.734;2024-03-02T08:00:28;37.47;;;22.27;;
75408;SDS011;63979;55.644;37.734;2024-03-02T08:05:32;43.38;;;22.48;;
75408;SDS011;63979;55.644;37.734;2024-03-02T08:10:39;39.33;;;23.23;;
75408;SDS011;63979;55.644;37.734;2024-03-02T08:15:45;42.72;;;24.58;;
75408;SDS011;63979;55.644;37.734;2024-03-02T08:20:47;48.25;;;25.70;;
75408;SDS011;63979;55.644;37.734;2024-03-02T08:25:47;42.15;;;23.55;;
75408;SDS011;63979;55.644;37.734;2024-03-02T08:30:48;44.20;;;23.95;;
75408;SDS011;63979;55.644;37.734;2024-03-02T08:35:49;44.60;;;23.80;;
75408;SDS011;63979;55.644;37.734;2024-03-02T08:40:51;42.08;;;23.20;;
75408;SDS011;63979;55.644;37.734;2024-03-02T08:45:52;44.25;;;23.80;;
75408;SDS011;63979;55.644;37.734;2024-03-02T08:50:53;45.00;;;25.05;;
75408;SDS011;63979;55.644;37.734;2024-03-02T08:55:53;43.92;;;23.42;;
75408;SDS011;63979;55.644;37.734;2024-03-02T09:00:55;42.03;;;23.08;;
75408;SDS011;63979;55.644;37.734;2024-03-02T09:05:58;45.08;;;21.63;;
75408;SDS011;63979;55.644;37.734;2024-03-02T09:10:59;42.88;;;21.65;;
75408;SDS011;63979;55.644;37.734;2024-03-02T09:16:00;43.95;;;21.48;;
75408;SDS011;63979;55.644;37.734;2024-03-02T09:26:33;42.33;;;22.95;;
75408;SDS011;63979;55.644;37.734;2024-03-02T09:31:38;45.47;;;22.58;;
75408;SDS011;63979;55.644;37.734;2024-03-02T09:36:43;52.47;;;25.90;;
75408;SDS011;63979;55.644;37.734;2024-03-02T09:41:48;54.50;;;26.00;;
75408;SDS011;63979;55.644;37.734;2024-03-02T09:46:49;50.97;;;26.83;;
75408;SDS011;63979;55.644;37.734;2024-03-02T09:51:56;47.85;;;25.92;;
75408;SDS011;63979;55.644;37.734;2024-03-02T10:02:35;46.20;;;26.02;;
75408;SDS011;63979;55.644;37.734;2024-03-02T10:07:42;35.63;;;20.90;;
75408;SDS011;63979;55.644;37.734;2024-03-02T10:12:42;45.15;;;23.83;;
75408;SDS011;63979;55.644;37.734;2024-03-02T10:17:43;40.17;;;22.30;;
75408;SDS011;63979;55.644;37.734;2024-03-02T10:22:49;36.15;;;21.08;;
75408;SDS011;63979;55.644;37.734;2024-03-02T10:27:51;32.70;;;18.73;;
75408;SDS011;63979;55.644;37.734;2024-03-02T10:32:53;34.22;;;18.05;;
75408;SDS011;63979;55.644;37.734;2024-03-02T10:37:55;32.05;;;19.65;;
75408;SDS011;63979;55.644;37.734;2024-03-02T10:42:56;35.83;;;21.58;;
75408;SDS011;63979;55.644;37.734;2024-03-02T10:52:58;28.55;;;17.85;;
75408;SDS011;63979;55.644;37.734;2024-03-02T10:57:59;33.10;;;19.10;;
75408;SDS011;63979;55.644;37.734;2024-03-02T11:03:06;31.30;;;18.08;;
75408;SDS011;63979;55.644;37.734;2024-03-02T11:08:18;33.65;;;18.40;;
75408;SDS011;63979;55.644;37.734;2024-03-02T11:13:30;30.73;;;18.88;;
75408;SDS011;63979;55.644;37.734;2024-03-02T11:18:36;31.75;;;17.20;;
75408;SDS011;63979;55.644;37.734;2024-03-02T11:23:41;33.30;;;17.65;;
75408;SDS011;63979;55.644;37.734;2024-03-02T11:28:43;30.27;;;17.35;;
75408;SDS011;63979;55.644;37.734;2024-03-02T11:39:50;24.38;;;14.70;;
75408;SDS011;63979;55.644;37.734;2024-03-02T11:44:59;32.80;;;16.35;;
75408;SDS011;63979;55.644;37.734;2024-03-02T11:50:01;30.83;;;16.38;;
75408;SDS011;63979;55.644;37.734;2024-03-02T11:55:07;21.90;;;13.60;;
75408;SDS011;63979;55.644;37.734;2024-03-02T12:00:16;24.85;;;13.52;;
75408;SDS011;63979;55.644;37.734;2024-03-02T12:05:18;25.30;;;12.77;;
75408;SDS011;63979;55.644;37.734;2024-03-02T12:11:01;28.10;;;13.90;;
75408;SDS011;63979;55.644;37.734;2024-03-02T12:16:08;27.23;;;14.43;;
75408;SDS011;63979;55.644;37.734;2024-03-02T12:21:10;25.20;;;14.00;;
75408;SDS011;63979;55.644;37.734;2024-03-02T12:26:13;29.75;;;15.95;;
75408;SDS011;63979;55.644;37.734;2024-03-02T12:36:25;24.33;;;13.82;;
75408;SDS011;63979;55.644;37.734;2024-03-02T12:41:32;27.08;;;13.85;;
75408;SDS011;63979;55.644;37.734;2024-03-02T12:46:33;18.92;;;11.40;;
75408;SDS011;63979;55.644;37.734;2024-03-02T12:51:36;16.00;;;10.15;;
75408;SDS011;63979;55.644;37.734;2024-03-02T12:56:38;17.27;;;11.43;;
75408;SDS011;63979;55.644;37.734;2024-03-02T13:01:52;16.50;;;10.90;;
75408;SDS011;63979;55.644;37.734;2024-03-02T13:06:54;15.65;;;10.20;;
75408;SDS011;63979;55.644;37.734;2024-03-02T13:12:00;21.42;;;10.23;;
75408;SDS011;63979;55.644;37.734;2024-03-02T13:17:02;19.83;;;10.05;;
75408;SDS011;63979;55.644;37.734;2024-03-02T13:22:09;18.00;;;8.65;;
75408;SDS011;63979;55.644;37.734;2024-03-02T13:27:23;13.02;;;8.32;;
75408;SDS011;63979;55.644;37.734;2024-03-02T13:32:25;14.48;;;8.88;;
75408;SDS011;63979;55.644;37.734;2024-03-02T13:37:26;14.00;;;8.88;;
75408;SDS011;63979;55.644;37.734;2024-03-02T13:42:33;14.60;;;8.35;;
75408;SDS011;63979;55.644;37.734;2024-03-02T13:47:35;17.00;;;9.45;;
75408;SDS011;63979;55.644;37.734;2024-03-02T13:52:36;13.55;;;8.57;;
75408;SDS011;63979;55.644;37.734;2024-03-02T13:57:37;19.15;;;9.00;;
75408;SDS011;63979;55.644;37.734;2024-03-02T14:02:38;18.30;;;9.52;;
75408;SDS011;63979;55.644;37.734;2024-03-02T14:08:00;17.42;;;8.98;;
75408;SDS011;63979;55.644;37.734;2024-03-02T14:13:04;12.75;;;6.97;;
75408;SDS011;63979;55.644;37.734;2024-03-02T14:18:09;14.38;;;6.22;;
75408;SDS011;63979;55.644;37.734;2024-03-02T14:23:15;15.88;;;7.50;;
75408;SDS011;63979;55.644;37.734;2024-03-02T14:28:16;17.65;;;7.93;;
75408;SDS011;63979;55.644;37.734;2024-03-02T14:33:17;18.10;;;7.75;;
75408;SDS011;63979;55.644;37.734;2024-03-02T14:38:18;11.40;;;6.97;;
75408;SDS011;63979;55.644;37.734;2024-03-02T14:43:23;15.27;;;7.75;;
75408;SDS011;63979;55.644;37.734;2024-03-02T14:48:26;23.73;;;8.20;;
75408;SDS011;63979;55.644;37.734;2024-03-02T14:53:29;17.00;;;8.00;;
75408;SDS011;63979;55.644;37.734;2024-03-02T14:58:31;14.75;;;8.02;;
75408;SDS011;63979;55.644;37.734;2024-03-02T15:03:32;23.40;;;9.10;;
75408;SDS011;63979;55.644;37.734;2024-03-02T15:08:34;19.48;;;9.35;;
75408;SDS011;63979;55.644;37.734;2024-03-02T15:13:35;19.05;;;10.05;;
75408;SDS011;63979;55.644;37.734;2024-03-02T15:18:37;16.10;;;8.10;;
75408;SDS011;63979;55.644;37.734;2024-03-02T15:23:41;21.38;;;9.85;;
75408;SDS011;63979;55.644;37.734;2024-03-02T15:28:42;22.20;;;10.60;;
75408;SDS011;63979;55.644;37.734;2024-03-02T15:33:43;24.45;;;10.23;;
75408;SDS011;63979;55.644;37.734;2024-03-02T15:38:45;20.60;;;11.13;;
75408;SDS011;63979;55.644;37.734;2024-03-02T15:43:53;18.80;;;10.20;;
75408;SDS011;63979;55.644;37.734;2024-03-02T15:48:56;21.73;;;9.40;;
75408;SDS011;63979;55.644;37.734;2024-03-02T15:53:58;23.02;;;10.70;;
75408;SDS011;63979;55.644;37.734;2024-03-02T15:58:59;21.02;;;10.98;;
75408;SDS011;63979;55.644;37.734;2024-03-02T16:04:00;24.15;;;12.32;;
75408;SDS011;63979;55.644;37.734;2024-03-02T16:09:08;25.17;;;11.30;;
75408;SDS011;63979;55.644;37.734;2024-03-02T16:14:10;27.75;;;14.18;;
75408;SDS011;63979;55.644;37.734;2024-03-02T16:19:11;21.77;;;13.07;;
75408;SDS011;63979;55.644;37.734;2024-03-02T16:24:13;27.20;;;13.68;;
75408;SDS011;63979;55.644;37.734;2024-03-02T16:29:14;32.38;;;14.45;;
75408;SDS011;63979;55.644;37.734;2024-03-02T16:34:15;30.88;;;13.55;;
75408;SDS011;63979;55.644;37.734;2024-03-02T16:39:22;27.73;;;14.07;;
75408;SDS011;63979;55.644;37.734;2024-03-02T16:44:24;25.95;;;11.10;;
75408;SDS011;63979;55.644;37.734;2024-03-02T16:49:24;22.80;;;12.18;;
75408;SDS011;63979;55.644;37.734;2024-03-02T16:54:25;27.75;;;13.27;;
75408;SDS011;63979;55.644;37.734;2024-03-02T16:59:27;25.77;;;12.43;;
75408;SDS011;63979;55.644;37.734;2024-03-02T17:04:28;21.73;;;11.85;;
75408;SDS011;63979;55.644;37.734;2024-03-02T17:09:29;23.40;;;14.20;;
75408;SDS011;63979;55.644;37.734;2024-03-02T17:14:30;25.92;;;14.70;;
75408;SDS011;63979;55.644;37.734;2024-03-02T17:19:31;27.23;;;11.60;;
75408;SDS011;63979;55.644;37.734;2024-03-02T17:24:32;29.75;;;15.63;;
75408;SDS011;63979;55.644;37.734;2024-03-02T17:29:34;30.98;;;13.57;;
75408;SDS011;63979;55.644;37.734;2024-03-02T17:34:35;25.75;;;12.88;;
75408;SDS011;63979;55.644;37.734;2024-03-02T17:39:36;31.30;;;13.35;;
75408;SDS011;63979;55.644;37.734;2024-03-02T17:44:38;28.70;;;14.40;;
75408;SDS011;63979;55.644;37.734;2024-03-02T17:55:01;24.67;;;12.85;;
75408;SDS011;63979;55.644;37.734;2024-03-02T18:00:04;27.42;;;13.68;;
75408;SDS011;63979;55.644;37.734;2024-03-02T18:05:07;30.77;;;13.55;;
75408;SDS011;63979;55.644;37.734;2024-03-02T18:10:11;22.17;;;12.98;;
75408;SDS011;63979;55.644;37.734;2024-03-02T18:15:15;25.00;;;13.02;;
75408;SDS011;63979;55.644;37.734;2024-03-02T18:20:16;30.65;;;13.68;;
75408;SDS011;63979;55.644;37.734;2024-03-02T18:25:17;27.33;;;13.85;;
75408;SDS011;63979;55.644;37.734;2024-03-02T18:30:37;22.58;;;13.25;;
75408;SDS011;63979;55.644;37.734;2024-03-02T18:35:50;26.98;;;13.65;;
75408;SDS011;63979;55.644;37.734;2024-03-02T18:40:50;28.70;;;13.82;;
75408;SDS011;63979;55.644;37.734;2024-03-02T18:45:51;27.15;;;14.05;;
75408;SDS011;63979;55.644;37.734;2024-03-02T18:50:56;28.02;;;15.38;;
75408;SDS011;63979;55.644;37.734;2024-03-02T18:55:57;28.10;;;14.57;;
75408;SDS011;63979;55.644;37.734;2024-03-02T19:00:58;28.60;;;14.63;;
75408;SDS011;63979;55.644;37.734;2024-03-02T19:06:00;25.90;;;14.85;;
75408;SDS011;63979;55.644;37.734;2024-03-02T19:11:14;21.27;;;11.90;;
75408;SDS011;63979;55.644;37.734;2024-03-02T19:16:19;22.27;;;10.75;;
75408;SDS011;63979;55.644;37.734;2024-03-02T19:26:54;22.75;;;12.98;;
75408;SDS011;63979;55.644;37.734;2024-03-02T19:31:55;24.38;;;13.80;;
75408;SDS011;63979;55.644;37.734;2024-03-02T19:36:59;25.13;;;12.82;;
75408;SDS011;63979;55.644;37.734;2024-03-02T19:42:03;27.17;;;13.20;;
75408;SDS011;63979;55.644;37.734;2024-03-02T19:47:11;27.38;;;13.00;;
75408;SDS011;63979;55.644;37.734;2024-03-02T19:52:19;22.63;;;12.95;;
75408;SDS011;63979;55.644;37.734;2024-03-02T19:57:20;19.17;;;11.65;;
75408;SDS011;63979;55.644;37.734;2024-03-02T20:02:23;32.13;;;15.07;;
75408;SDS011;63979;55.644;37.734;2024-03-02T20:07:27;17.77;;;10.95;;
75408;SDS011;63979;55.644;37.734;2024-03-02T20:12:28;28.30;;;10.88;;
75408;SDS011;63979;55.644;37.734;2024-03-02T20:17:31;22.25;;;11.57;;
75408;SDS011;63979;55.644;37.734;2024-03-02T20:22:32;22.17;;;10.65;;
75408;SDS011;63979;55.644;37.734;2024-03-02T20:27:34;16.15;;;9.35;;
75408;SDS011;63979;55.644;37.734;2024-03-02T20:32:41;24.38;;;11.45;;
75408;SDS011;63979;55.644;37.734;2024-03-02T20:37:52;25.55;;;14.07;;
75408;SDS011;63979;55.644;37.734;2024-03-02T20:43:17;23.77;;;13.45;;
75408;SDS011;63979;55.644;37.734;2024-03-02T20:48:26;26.35;;;12.80;;
75408;SDS011;63979;55.644;37.734;2024-03-02T20:53:34;24.05;;;12.38;;
75408;SDS011;63979;55.644;37.734;2024-03-02T20:58:44;26.98;;;13.43;;
75408;SDS011;63979;55.644;37.734;2024-03-02T21:03:45;24.77;;;13.88;;
75408;SDS011;63979;55.644;37.734;2024-03-02T21:08:46;20.85;;;12.32;;
75408;SDS011;63979;55.644;37.734;2024-03-02T21:13:47;25.73;;;12.98;;
75408;SDS011;63979;55.644;37.734;2024-03-02T21:18:49;29.45;;;14.25;;
75408;SDS011;63979;55.644;37.734;2024-03-02T21:23:51;19.70;;;11.20;;
75408;SDS011;63979;55.644;37.734;2024-03-02T21:28:52;18.10;;;10.40;;
75408;SDS011;63979;55.644;37.734;2024-03-02T21:33:52;21.45;;;11.63;;
75408;SDS011;63979;55.644;37.734;2024-03-02T21:38:53;21.23;;;9.80;;
75408;SDS011;63979;55.644;37.734;2024-03-02T21:43:54;23.50;;;11.82;;
75408;SDS011;63979;55.644;37.734;2024-03-02T21:48:55;17.60;;;10.05;;
75408;SDS011;63979;55.644;37.734;2024-03-02T21:53:56;14.25;;;8.27;;
75408;SDS011;63979;55.644;37.734;2024-03-02T21:58:58;16.50;;;7.45;;
75408;SDS011;63979;55.644;37.734;2024-03-02T22:03:59;10.73;;;6.60;;
75408;SDS011;63979;55.644;37.734;2024-03-02T22:14:03;15.43;;;8.60;;
75408;SDS011;63979;55.644;37.734;2024-03-02T22:19:04;12.07;;;7.35;;
75408;SDS011;63979;55.644;37.734;2024-03-02T22:24:05;18.52;;;8.13;;
75408;SDS011;63979;55.644;37.734;2024-03-02T22:29:06;24.73;;;8.77;;
75408;SDS011;63979;55.644;37.734;2024-03-02T22:34:07;15.07;;;8.00;;
75408;SDS011;63979;55.644;37.734;2024-03-02T22:39:08;17.45;;;8.07;;
75408;SDS011;63979;55.644;37.734;2024-03-02T22:44:09;13.57;;;7.32;;
75408;SDS011;63979;55.644;37.734;2024-03-02T22:49:10;22.33;;;8.07;;
75408;SDS011;63979;55.644;37.734;2024-03-02T22:54:11;12.45;;;6.15;;
75408;SDS011;63979;55.644;37.734;2024-03-02T22:59:12;15.82;;;7.15;;
75408;SDS011;63979;55.644;37.734;2024-03-02T23:04:14;17.75;;;7.78;;
75408;SDS011;63979;55.644;37.734;2024-03-02T23:09:15;15.73;;;6.95;;
75408;SDS011;63979;55.644;37.734;2024-03-02T23:14:15;11.25;;;6.43;;
75408;SDS011;63979;55.644;37.734;2024-03-02T23:19:16;16.73;;;8.43;;
75408;SDS011;63979;55.644;37.734;2024-03-02T23:24:23;20.40;;;11.98;;
75408;SDS011;63979;55.644;37.734;2024-03-02T23:29:24;17.10;;;9.07;;
75408;SDS011;63979;55.644;37.734;2024-03-02T23:34:25;21.08;;;10.60;;
75408;SDS011;63979;55.644;37.734;2024-03-02T23:39:27;16.00;;;10.10;;
75408;SDS011;63979;55.644;37.734;2024-03-02T23:44:47;18.65;;;11.07;;
75408;SDS011;63979;55.644;37.734;2024-03-02T23:49:48;32.33;;;13.30;;
75408;SDS011;63979;55.644;37.734;2024-03-02T23:54:49;22.35;;;11.32;;
75408;SDS011;63979;55.644;37.734;2024-03-02T23:59:50;21.00;;;11.30;;
